sensor_id;sensor_type;location;lat;lon;timestamp;temperature;humidity
28530;DHT22;15737;49.760;6.632;2023-05-10T00:02:23;12.10;99.90
28530;DHT22;15737;49.760;6.632;2023-05-10T00:04:49;12.10;99.90
28530;DHT22;15737;49.760;6.632;2023-05-10T00:07:15;12.10;99.90
28530;DHT22;15737;49.760;6.632;2023-05-10T00:09:43;12.10;99.90
28530;DHT22;15737;49.760;6.632;2023-05-10T00:12:08;12.10;99.90
28530;DHT22;15737;49.760;6.632;2023-05-10T00:14:34;12.00;99.90
28530;DHT22;15737;49.760;6.632;2023-05-10T00:17:00;12.00;99.90
28530;DHT22;15737;49.760;6.632;2023-05-10T00:19:25;12.00;99.90
28530;DHT22;15737;49.760;6.632;2023-05-10T00:21:51;11.90;99.90
28530;DHT22;15737;49.760;6.632;2023-05-10T00:24:16;11.90;99.90
28530;DHT22;15737;49.760;6.632;2023-05-10T00:26:42;11.90;99.90
28530;DHT22;15737;49.760;6.632;2023-05-10T00:29:07;11.80;99.90
28530;DHT22;15737;49.760;6.632;2023-05-10T00:31:33;11.80;99.90
28530;DHT22;15737;49.760;6.632;2023-05-10T00:33:58;11.90;99.90
28530;DHT22;15737;49.760;6.632;2023-05-10T00:36:24;11.90;99.90
28530;DHT22;15737;49.760;6.632;2023-05-10T00:38:49;11.90;99.90
28530;DHT22;15737;49.760;6.632;2023-05-10T00:41:15;12.00;99.90
28530;DHT22;15737;49.760;6.632;2023-05-10T00:43:41;12.00;99.90
28530;DHT22;15737;49.760;6.632;2023-05-10T00:46:06;12.00;99.90
28530;DHT22;15737;49.760;6.632;2023-05-10T00:48:32;12.00;99.90
28530;DHT22;15737;49.760;6.632;2023-05-10T00:50:58;12.00;99.90
28530;DHT22;15737;49.760;6.632;2023-05-10T00:53:24;12.00;99.90
28530;DHT22;15737;49.760;6.632;2023-05-10T00:55:50;12.00;99.90
28530;DHT22;15737;49.760;6.632;2023-05-10T00:58:16;12.00;99.90
28530;DHT22;15737;49.760;6.632;2023-05-10T01:00:42;11.90;99.90
28530;DHT22;15737;49.760;6.632;2023-05-10T01:03:10;11.90;99.90
28530;DHT22;15737;49.760;6.632;2023-05-10T01:05:37;11.80;99.90
28530;DHT22;15737;49.760;6.632;2023-05-10T01:08:02;11.70;99.90
28530;DHT22;15737;49.760;6.632;2023-05-10T01:10:28;11.70;99.90
28530;DHT22;15737;49.760;6.632;2023-05-10T01:12:54;11.60;99.90
28530;DHT22;15737;49.760;6.632;2023-05-10T01:15:20;11.60;99.90
28530;DHT22;15737;49.760;6.632;2023-05-10T01:17:47;11.50;99.90
28530;DHT22;15737;49.760;6.632;2023-05-10T01:20:14;11.50;99.90
28530;DHT22;15737;49.760;6.632;2023-05-10T01:23:08;11.50;99.90
28530;DHT22;15737;49.760;6.632;2023-05-10T01:31:31;11.40;99.90
28530;DHT22;15737;49.760;6.632;2023-05-10T01:34:12;11.30;99.90
28530;DHT22;15737;49.760;6.632;2023-05-10T01:36:45;11.30;99.90
28530;DHT22;15737;49.760;6.632;2023-05-10T01:39:20;11.30;99.90
28530;DHT22;15737;49.760;6.632;2023-05-10T01:41:54;11.30;99.90
28530;DHT22;15737;49.760;6.632;2023-05-10T01:44:31;11.30;99.90
28530;DHT22;15737;49.760;6.632;2023-05-10T01:47:12;11.30;99.90
28530;DHT22;15737;49.760;6.632;2023-05-10T01:49:54;11.30;99.90
28530;DHT22;15737;49.760;6.632;2023-05-10T01:52:26;11.30;99.90
28530;DHT22;15737;49.760;6.632;2023-05-10T01:55:01;11.40;99.90
28530;DHT22;15737;49.760;6.632;2023-05-10T01:57:35;11.40;99.90
28530;DHT22;15737;49.760;6.632;2023-05-10T02:00:03;11.50;99.90
28530;DHT22;15737;49.760;6.632;2023-05-10T02:02:35;11.50;99.90
28530;DHT22;15737;49.760;6.632;2023-05-10T02:05:03;11.50;99.90
28530;DHT22;15737;49.760;6.632;2023-05-10T02:07:31;11.50;99.90
28530;DHT22;15737;49.760;6.632;2023-05-10T02:09:58;11.50;99.90
28530;DHT22;15737;49.760;6.632;2023-05-10T02:12:24;11.50;99.90
28530;DHT22;15737;49.760;6.632;2023-05-10T02:14:51;11.50;99.90
28530;DHT22;15737;49.760;6.632;2023-05-10T02:17:18;11.50;99.90
28530;DHT22;15737;49.760;6.632;2023-05-10T02:19:44;11.60;99.90
28530;DHT22;15737;49.760;6.632;2023-05-10T02:22:11;11.60;99.90
28530;DHT22;15737;49.760;6.632;2023-05-10T02:24:38;11.60;99.90
28530;DHT22;15737;49.760;6.632;2023-05-10T02:27:05;11.60;99.90
28530;DHT22;15737;49.760;6.632;2023-05-10T02:29:32;11.60;99.90
28530;DHT22;15737;49.760;6.632;2023-05-10T02:31:59;11.60;99.90
28530;DHT22;15737;49.760;6.632;2023-05-10T02:34:26;11.70;99.90
28530;DHT22;15737;49.760;6.632;2023-05-10T02:36:53;11.70;99.90
28530;DHT22;15737;49.760;6.632;2023-05-10T02:39:21;11.70;99.90
28530;DHT22;15737;49.760;6.632;2023-05-10T02:41:48;11.70;99.90
28530;DHT22;15737;49.760;6.632;2023-05-10T02:44:16;11.70;99.90
28530;DHT22;15737;49.760;6.632;2023-05-10T02:46:42;11.70;99.90
28530;DHT22;15737;49.760;6.632;2023-05-10T02:49:08;11.70;99.90
28530;DHT22;15737;49.760;6.632;2023-05-10T02:51:36;11.70;99.90
28530;DHT22;15737;49.760;6.632;2023-05-10T02:54:10;11.70;99.90
28530;DHT22;15737;49.760;6.632;2023-05-10T02:56:40;11.70;99.90
28530;DHT22;15737;49.760;6.632;2023-05-10T02:59:06;11.70;99.90
28530;DHT22;15737;49.760;6.632;2023-05-10T03:01:32;11.60;99.90
28530;DHT22;15737;49.760;6.632;2023-05-10T03:03:57;11.60;99.90
28530;DHT22;15737;49.760;6.632;2023-05-10T03:06:23;11.60;99.90
28530;DHT22;15737;49.760;6.632;2023-05-10T03:08:49;11.70;99.90
28530;DHT22;15737;49.760;6.632;2023-05-10T03:11:27;11.70;99.90
28530;DHT22;15737;49.760;6.632;2023-05-10T03:16:29;11.80;99.90
28530;DHT22;15737;49.760;6.632;2023-05-10T03:19:06;11.80;99.90
28530;DHT22;15737;49.760;6.632;2023-05-10T03:21:38;11.90;99.90
28530;DHT22;15737;49.760;6.632;2023-05-10T03:24:07;11.90;99.90
28530;DHT22;15737;49.760;6.632;2023-05-10T03:26:33;11.90;99.90
28530;DHT22;15737;49.760;6.632;2023-05-10T03:29:00;12.00;99.90
28530;DHT22;15737;49.760;6.632;2023-05-10T03:31:26;12.00;99.90
28530;DHT22;15737;49.760;6.632;2023-05-10T03:33:52;12.00;99.90
28530;DHT22;15737;49.760;6.632;2023-05-10T03:36:19;12.00;99.90
28530;DHT22;15737;49.760;6.632;2023-05-10T03:38:45;12.00;99.90
28530;DHT22;15737;49.760;6.632;2023-05-10T03:41:10;12.00;99.90
28530;DHT22;15737;49.760;6.632;2023-05-10T03:43:36;12.00;99.90
28530;DHT22;15737;49.760;6.632;2023-05-10T03:46:03;12.00;99.90
28530;DHT22;15737;49.760;6.632;2023-05-10T03:48:29;12.10;99.90
28530;DHT22;15737;49.760;6.632;2023-05-10T03:50:54;12.10;99.90
28530;DHT22;15737;49.760;6.632;2023-05-10T03:53:20;12.10;99.90
28530;DHT22;15737;49.760;6.632;2023-05-10T03:55:45;12.10;99.90
28530;DHT22;15737;49.760;6.632;2023-05-10T03:58:11;12.10;99.90
28530;DHT22;15737;49.760;6.632;2023-05-10T04:00:37;12.10;99.90
28530;DHT22;15737;49.760;6.632;2023-05-10T04:03:09;12.10;99.90
28530;DHT22;15737;49.760;6.632;2023-05-10T04:05:35;12.10;99.90
28530;DHT22;15737;49.760;6.632;2023-05-10T04:08:00;12.10;99.90
28530;DHT22;15737;49.760;6.632;2023-05-10T04:10:26;12.10;99.90
28530;DHT22;15737;49.760;6.632;2023-05-10T04:12:51;12.10;99.90
28530;DHT22;15737;49.760;6.632;2023-05-10T04:15:17;12.20;99.90
28530;DHT22;15737;49.760;6.632;2023-05-10T04:17:42;12.10;99.90
28530;DHT22;15737;49.760;6.632;2023-05-10T04:20:08;12.10;99.90
28530;DHT22;15737;49.760;6.632;2023-05-10T04:22:34;12.10;99.90
28530;DHT22;15737;49.760;6.632;2023-05-10T04:24:59;12.10;99.90
28530;DHT22;15737;49.760;6.632;2023-05-10T04:27:25;12.10;99.90
28530;DHT22;15737;49.760;6.632;2023-05-10T04:29:50;12.10;99.90
28530;DHT22;15737;49.760;6.632;2023-05-10T04:32:16;12.10;99.90
28530;DHT22;15737;49.760;6.632;2023-05-10T04:34:43;12.10;99.90
28530;DHT22;15737;49.760;6.632;2023-05-10T04:37:08;12.20;99.90
28530;DHT22;15737;49.760;6.632;2023-05-10T04:39:34;12.20;99.90
28530;DHT22;15737;49.760;6.632;2023-05-10T04:42:00;12.30;99.90
28530;DHT22;15737;49.760;6.632;2023-05-10T04:44:26;12.30;99.90
28530;DHT22;15737;49.760;6.632;2023-05-10T04:46:51;12.30;99.90
28530;DHT22;15737;49.760;6.632;2023-05-10T04:49:17;12.30;99.90
28530;DHT22;15737;49.760;6.632;2023-05-10T04:51:43;12.30;99.90
28530;DHT22;15737;49.760;6.632;2023-05-10T04:54:08;12.30;99.90
28530;DHT22;15737;49.760;6.632;2023-05-10T04:56:34;12.30;99.90
28530;DHT22;15737;49.760;6.632;2023-05-10T04:59:00;12.30;99.90
28530;DHT22;15737;49.760;6.632;2023-05-10T05:01:25;12.30;99.90
28530;DHT22;15737;49.760;6.632;2023-05-10T05:03:51;12.20;99.90
28530;DHT22;15737;49.760;6.632;2023-05-10T05:06:18;12.30;99.90
28530;DHT22;15737;49.760;6.632;2023-05-10T05:08:43;12.30;99.90
28530;DHT22;15737;49.760;6.632;2023-05-10T05:11:09;12.30;99.90
28530;DHT22;15737;49.760;6.632;2023-05-10T05:13:34;12.30;99.90
28530;DHT22;15737;49.760;6.632;2023-05-10T05:16:01;12.40;99.90
28530;DHT22;15737;49.760;6.632;2023-05-10T05:18:28;12.40;99.90
28530;DHT22;15737;49.760;6.632;2023-05-10T05:20:53;12.40;99.90
28530;DHT22;15737;49.760;6.632;2023-05-10T05:23:19;12.40;99.90
28530;DHT22;15737;49.760;6.632;2023-05-10T05:25:46;12.50;99.90
28530;DHT22;15737;49.760;6.632;2023-05-10T05:28:11;12.50;99.90
28530;DHT22;15737;49.760;6.632;2023-05-10T05:30:37;12.50;99.90
28530;DHT22;15737;49.760;6.632;2023-05-10T05:33:03;12.50;99.90
28530;DHT22;15737;49.760;6.632;2023-05-10T05:35:28;12.50;99.90
28530;DHT22;15737;49.760;6.632;2023-05-10T05:37:54;12.60;99.90
28530;DHT22;15737;49.760;6.632;2023-05-10T05:40:19;12.60;99.90
28530;DHT22;15737;49.760;6.632;2023-05-10T05:42:45;12.60;99.90
28530;DHT22;15737;49.760;6.632;2023-05-10T05:45:11;12.60;99.90
28530;DHT22;15737;49.760;6.632;2023-05-10T05:47:39;12.60;99.90
28530;DHT22;15737;49.760;6.632;2023-05-10T05:50:05;12.70;99.90
28530;DHT22;15737;49.760;6.632;2023-05-10T05:52:31;12.80;99.90
28530;DHT22;15737;49.760;6.632;2023-05-10T05:54:56;12.90;99.90
28530;DHT22;15737;49.760;6.632;2023-05-10T05:57:22;12.90;99.90
28530;DHT22;15737;49.760;6.632;2023-05-10T05:59:48;12.90;99.90
28530;DHT22;15737;49.760;6.632;2023-05-10T06:02:13;12.90;99.90
28530;DHT22;15737;49.760;6.632;2023-05-10T06:04:39;12.90;99.90
28530;DHT22;15737;49.760;6.632;2023-05-10T06:07:04;12.90;99.90
28530;DHT22;15737;49.760;6.632;2023-05-10T06:09:30;13.00;99.90
28530;DHT22;15737;49.760;6.632;2023-05-10T06:11:55;13.10;99.90
28530;DHT22;15737;49.760;6.632;2023-05-10T06:14:21;13.20;99.90
28530;DHT22;15737;49.760;6.632;2023-05-10T06:16:47;13.30;99.90
28530;DHT22;15737;49.760;6.632;2023-05-10T06:19:12;13.20;99.90
28530;DHT22;15737;49.760;6.632;2023-05-10T06:21:38;13.20;99.90
28530;DHT22;15737;49.760;6.632;2023-05-10T06:24:04;13.20;99.90
28530;DHT22;15737;49.760;6.632;2023-05-10T06:26:31;13.20;99.90
28530;DHT22;15737;49.760;6.632;2023-05-10T06:28:57;13.20;99.90
28530;DHT22;15737;49.760;6.632;2023-05-10T06:31:23;13.40;99.90
28530;DHT22;15737;49.760;6.632;2023-05-10T06:33:48;13.50;99.90
28530;DHT22;15737;49.760;6.632;2023-05-10T06:36:13;13.40;99.90
28530;DHT22;15737;49.760;6.632;2023-05-10T06:38:39;13.40;99.90
28530;DHT22;15737;49.760;6.632;2023-05-10T06:41:05;13.40;99.90
28530;DHT22;15737;49.760;6.632;2023-05-10T06:43:31;13.50;99.90
28530;DHT22;15737;49.760;6.632;2023-05-10T06:45:56;13.40;99.90
28530;DHT22;15737;49.760;6.632;2023-05-10T06:48:22;13.30;99.90
28530;DHT22;15737;49.760;6.632;2023-05-10T06:50:48;13.20;99.90
28530;DHT22;15737;49.760;6.632;2023-05-10T06:53:13;13.10;99.90
28530;DHT22;15737;49.760;6.632;2023-05-10T06:55:45;13.10;99.90
28530;DHT22;15737;49.760;6.632;2023-05-10T06:58:10;13.20;99.90
28530;DHT22;15737;49.760;6.632;2023-05-10T07:00:36;13.40;99.90
28530;DHT22;15737;49.760;6.632;2023-05-10T07:03:05;13.70;99.90
28530;DHT22;15737;49.760;6.632;2023-05-10T07:05:31;13.90;99.90
28530;DHT22;15737;49.760;6.632;2023-05-10T07:07:57;14.00;99.90
28530;DHT22;15737;49.760;6.632;2023-05-10T07:10:22;14.30;99.90
28530;DHT22;15737;49.760;6.632;2023-05-10T07:12:48;14.80;99.90
28530;DHT22;15737;49.760;6.632;2023-05-10T07:15:13;16.30;99.90
28530;DHT22;15737;49.760;6.632;2023-05-10T07:17:39;16.90;99.90
28530;DHT22;15737;49.760;6.632;2023-05-10T07:20:05;17.20;99.90
28530;DHT22;15737;49.760;6.632;2023-05-10T07:22:30;17.40;99.90
28530;DHT22;15737;49.760;6.632;2023-05-10T07:24:56;16.80;99.90
28530;DHT22;15737;49.760;6.632;2023-05-10T07:27:21;16.20;99.90
28530;DHT22;15737;49.760;6.632;2023-05-10T07:29:47;15.30;99.90
28530;DHT22;15737;49.760;6.632;2023-05-10T07:32:12;14.80;99.90
28530;DHT22;15737;49.760;6.632;2023-05-10T07:34:38;14.60;99.90
28530;DHT22;15737;49.760;6.632;2023-05-10T07:37:03;14.40;99.90
28530;DHT22;15737;49.760;6.632;2023-05-10T07:39:29;14.30;99.90
28530;DHT22;15737;49.760;6.632;2023-05-10T07:41:55;14.40;99.90
28530;DHT22;15737;49.760;6.632;2023-05-10T07:44:20;14.40;99.90
28530;DHT22;15737;49.760;6.632;2023-05-10T07:46:46;14.40;99.90
28530;DHT22;15737;49.760;6.632;2023-05-10T07:49:12;14.50;99.90
28530;DHT22;15737;49.760;6.632;2023-05-10T07:51:38;14.70;99.90
28530;DHT22;15737;49.760;6.632;2023-05-10T07:54:03;14.90;99.90
28530;DHT22;15737;49.760;6.632;2023-05-10T07:56:30;14.90;99.90
28530;DHT22;15737;49.760;6.632;2023-05-10T07:59:00;14.90;99.90
28530;DHT22;15737;49.760;6.632;2023-05-10T08:01:26;14.90;99.90
28530;DHT22;15737;49.760;6.632;2023-05-10T08:03:55;14.90;99.90
28530;DHT22;15737;49.760;6.632;2023-05-10T08:06:20;15.00;99.90
28530;DHT22;15737;49.760;6.632;2023-05-10T08:08:47;15.20;99.90
28530;DHT22;15737;49.760;6.632;2023-05-10T08:11:17;15.50;99.90
28530;DHT22;15737;49.760;6.632;2023-05-10T08:13:47;15.80;99.90
28530;DHT22;15737;49.760;6.632;2023-05-10T08:16:12;15.90;99.90
28530;DHT22;15737;49.760;6.632;2023-05-10T08:18:39;16.00;99.90
28530;DHT22;15737;49.760;6.632;2023-05-10T08:21:05;16.10;99.90
28530;DHT22;15737;49.760;6.632;2023-05-10T08:23:31;16.50;99.90
28530;DHT22;15737;49.760;6.632;2023-05-10T08:25:57;18.20;99.90
28530;DHT22;15737;49.760;6.632;2023-05-10T08:28:22;19.60;99.90
28530;DHT22;15737;49.760;6.632;2023-05-10T08:30:49;19.70;99.90
28530;DHT22;15737;49.760;6.632;2023-05-10T08:33:15;20.00;99.90
28530;DHT22;15737;49.760;6.632;2023-05-10T08:35:40;20.50;99.90
28530;DHT22;15737;49.760;6.632;2023-05-10T08:38:13;20.40;99.90
28530;DHT22;15737;49.760;6.632;2023-05-10T08:40:47;20.40;99.90
28530;DHT22;15737;49.760;6.632;2023-05-10T08:43:29;19.40;99.90
28530;DHT22;15737;49.760;6.632;2023-05-10T08:46:04;18.40;99.90
28530;DHT22;15737;49.760;6.632;2023-05-10T08:48:41;17.50;99.90
28530;DHT22;15737;49.760;6.632;2023-05-10T08:51:27;16.80;99.90
28530;DHT22;15737;49.760;6.632;2023-05-10T08:54:06;16.00;99.90
28530;DHT22;15737;49.760;6.632;2023-05-10T08:56:43;14.90;99.90
28530;DHT22;15737;49.760;6.632;2023-05-10T08:59:17;14.00;99.90
28530;DHT22;15737;49.760;6.632;2023-05-10T09:01:57;13.10;99.90
28530;DHT22;15737;49.760;6.632;2023-05-10T09:04:35;12.40;99.90
28530;DHT22;15737;49.760;6.632;2023-05-10T09:07:11;12.10;99.90
28530;DHT22;15737;49.760;6.632;2023-05-10T09:09:49;11.90;99.90
28530;DHT22;15737;49.760;6.632;2023-05-10T09:12:31;12.10;99.90
28530;DHT22;15737;49.760;6.632;2023-05-10T09:15:07;12.10;99.90
28530;DHT22;15737;49.760;6.632;2023-05-10T09:17:47;12.10;99.90
28530;DHT22;15737;49.760;6.632;2023-05-10T09:20:26;12.30;99.90
28530;DHT22;15737;49.760;6.632;2023-05-10T09:23:02;12.60;99.90
28530;DHT22;15737;49.760;6.632;2023-05-10T09:25:41;12.60;99.90
28530;DHT22;15737;49.760;6.632;2023-05-10T09:28:21;13.00;99.90
28530;DHT22;15737;49.760;6.632;2023-05-10T09:30:54;13.30;99.90
28530;DHT22;15737;49.760;6.632;2023-05-10T09:33:29;13.40;99.90
28530;DHT22;15737;49.760;6.632;2023-05-10T09:36:24;13.70;99.90
28530;DHT22;15737;49.760;6.632;2023-05-10T09:39:04;14.00;99.90
28530;DHT22;15737;49.760;6.632;2023-05-10T09:41:42;14.00;99.90
28530;DHT22;15737;49.760;6.632;2023-05-10T09:44:22;14.00;99.90
28530;DHT22;15737;49.760;6.632;2023-05-10T09:47:01;14.10;99.90
28530;DHT22;15737;49.760;6.632;2023-05-10T09:49:37;14.20;99.90
28530;DHT22;15737;49.760;6.632;2023-05-10T09:52:13;14.10;99.90
28530;DHT22;15737;49.760;6.632;2023-05-10T09:54:59;14.20;99.90
28530;DHT22;15737;49.760;6.632;2023-05-10T09:57:37;14.40;99.90
28530;DHT22;15737;49.760;6.632;2023-05-10T10:00:27;14.90;99.90
28530;DHT22;15737;49.760;6.632;2023-05-10T10:03:12;15.50;99.90
28530;DHT22;15737;49.760;6.632;2023-05-10T10:05:54;15.60;99.90
28530;DHT22;15737;49.760;6.632;2023-05-10T10:08:37;15.90;99.90
28530;DHT22;15737;49.760;6.632;2023-05-10T10:11:13;16.60;99.90
28530;DHT22;15737;49.760;6.632;2023-05-10T10:13:52;17.90;99.90
28530;DHT22;15737;49.760;6.632;2023-05-10T10:16:19;19.10;99.90
28530;DHT22;15737;49.760;6.632;2023-05-10T10:18:45;19.40;99.90
28530;DHT22;15737;49.760;6.632;2023-05-10T10:21:13;19.00;99.90
28530;DHT22;15737;49.760;6.632;2023-05-10T10:23:40;18.60;99.90
28530;DHT22;15737;49.760;6.632;2023-05-10T10:26:06;18.40;99.90
28530;DHT22;15737;49.760;6.632;2023-05-10T10:28:46;18.30;99.90
28530;DHT22;15737;49.760;6.632;2023-05-10T10:31:25;18.10;99.90
28530;DHT22;15737;49.760;6.632;2023-05-10T10:34:08;17.80;99.90
28530;DHT22;15737;49.760;6.632;2023-05-10T10:36:52;17.40;99.90
28530;DHT22;15737;49.760;6.632;2023-05-10T10:39:18;17.20;99.90
28530;DHT22;15737;49.760;6.632;2023-05-10T10:42:11;17.00;99.90
28530;DHT22;15737;49.760;6.632;2023-05-10T10:44:37;16.60;99.90
28530;DHT22;15737;49.760;6.632;2023-05-10T10:50:11;16.20;99.90
28530;DHT22;15737;49.760;6.632;2023-05-10T10:52:46;16.20;99.90
28530;DHT22;15737;49.760;6.632;2023-05-10T10:55:25;16.60;99.90
28530;DHT22;15737;49.760;6.632;2023-05-10T10:58:08;17.00;99.90
28530;DHT22;15737;49.760;6.632;2023-05-10T11:00:44;17.50;99.90
28530;DHT22;15737;49.760;6.632;2023-05-10T11:03:24;17.60;99.90
28530;DHT22;15737;49.760;6.632;2023-05-10T11:06:03;17.50;99.90
28530;DHT22;15737;49.760;6.632;2023-05-10T11:08:42;17.10;99.90
28530;DHT22;15737;49.760;6.632;2023-05-10T11:11:14;17.10;99.90
28530;DHT22;15737;49.760;6.632;2023-05-10T11:13:46;17.30;99.90
28530;DHT22;15737;49.760;6.632;2023-05-10T11:16:22;17.50;99.90
28530;DHT22;15737;49.760;6.632;2023-05-10T11:19:08;17.70;99.90
28530;DHT22;15737;49.760;6.632;2023-05-10T11:22:14;18.00;99.90
28530;DHT22;15737;49.760;6.632;2023-05-10T11:25:01;18.30;99.90
28530;DHT22;15737;49.760;6.632;2023-05-10T11:27:39;18.50;99.90
28530;DHT22;15737;49.760;6.632;2023-05-10T11:30:16;18.70;99.90
28530;DHT22;15737;49.760;6.632;2023-05-10T11:32:58;18.60;99.90
28530;DHT22;15737;49.760;6.632;2023-05-10T11:35:52;18.60;99.90
28530;DHT22;15737;49.760;6.632;2023-05-10T11:38:32;17.70;99.90
28530;DHT22;15737;49.760;6.632;2023-05-10T11:41:07;17.40;99.90
28530;DHT22;15737;49.760;6.632;2023-05-10T11:43:45;17.80;99.90
28530;DHT22;15737;49.760;6.632;2023-05-10T11:46:27;18.30;99.90
28530;DHT22;15737;49.760;6.632;2023-05-10T11:49:03;19.10;99.90
28530;DHT22;15737;49.760;6.632;2023-05-10T11:51:39;19.90;99.90
28530;DHT22;15737;49.760;6.632;2023-05-10T11:54:22;20.20;99.90
28530;DHT22;15737;49.760;6.632;2023-05-10T11:56:51;20.60;99.90
28530;DHT22;15737;49.760;6.632;2023-05-10T11:59:17;20.80;99.90
28530;DHT22;15737;49.760;6.632;2023-05-10T12:01:43;20.50;99.90
28530;DHT22;15737;49.760;6.632;2023-05-10T12:04:08;19.80;99.50
28530;DHT22;15737;49.760;6.632;2023-05-10T12:06:40;19.40;99.90
28530;DHT22;15737;49.760;6.632;2023-05-10T12:09:07;19.60;99.90
28530;DHT22;15737;49.760;6.632;2023-05-10T12:11:37;19.60;99.90
28530;DHT22;15737;49.760;6.632;2023-05-10T12:14:04;19.70;99.90
28530;DHT22;15737;49.760;6.632;2023-05-10T12:16:30;19.40;99.10
28530;DHT22;15737;49.760;6.632;2023-05-10T12:18:57;19.00;99.80
28530;DHT22;15737;49.760;6.632;2023-05-10T12:21:23;18.80;99.70
28530;DHT22;15737;49.760;6.632;2023-05-10T12:23:54;18.90;99.90
28530;DHT22;15737;49.760;6.632;2023-05-10T12:28:49;20.70;99.30
28530;DHT22;15737;49.760;6.632;2023-05-10T12:31:15;20.40;97.90
28530;DHT22;15737;49.760;6.632;2023-05-10T12:33:45;19.80;99.10
28530;DHT22;15737;49.760;6.632;2023-05-10T12:36:13;19.60;99.90
28530;DHT22;15737;49.760;6.632;2023-05-10T12:38:44;19.30;99.90
28530;DHT22;15737;49.760;6.632;2023-05-10T12:41:11;19.10;99.90
28530;DHT22;15737;49.760;6.632;2023-05-10T12:43:37;19.20;99.90
28530;DHT22;15737;49.760;6.632;2023-05-10T12:48:31;18.20;99.90
28530;DHT22;15737;49.760;6.632;2023-05-10T12:50:59;18.10;99.90
28530;DHT22;15737;49.760;6.632;2023-05-10T12:53:25;18.20;99.90
28530;DHT22;15737;49.760;6.632;2023-05-10T12:55:51;18.50;99.90
28530;DHT22;15737;49.760;6.632;2023-05-10T12:58:16;19.10;99.90
28530;DHT22;15737;49.760;6.632;2023-05-10T13:00:42;19.70;99.90
28530;DHT22;15737;49.760;6.632;2023-05-10T13:03:09;19.70;99.00
28530;DHT22;15737;49.760;6.632;2023-05-10T13:05:35;19.50;99.20
28530;DHT22;15737;49.760;6.632;2023-05-10T13:08:00;19.60;98.80
28530;DHT22;15737;49.760;6.632;2023-05-10T13:10:26;19.20;99.10
28530;DHT22;15737;49.760;6.632;2023-05-10T13:12:51;18.90;99.40
28530;DHT22;15737;49.760;6.632;2023-05-10T13:15:17;18.90;99.90
28530;DHT22;15737;49.760;6.632;2023-05-10T13:17:43;19.20;99.50
28530;DHT22;15737;49.760;6.632;2023-05-10T13:20:09;19.30;98.90
28530;DHT22;15737;49.760;6.632;2023-05-10T13:22:35;19.50;99.10
28530;DHT22;15737;49.760;6.632;2023-05-10T13:25:01;20.30;98.30
28530;DHT22;15737;49.760;6.632;2023-05-10T13:27:27;20.90;97.70
28530;DHT22;15737;49.760;6.632;2023-05-10T13:29:53;22.30;97.40
28530;DHT22;15737;49.760;6.632;2023-05-10T13:32:23;22.90;94.50
28530;DHT22;15737;49.760;6.632;2023-05-10T13:35:08;22.80;92.70
28530;DHT22;15737;49.760;6.632;2023-05-10T13:37:42;21.90;92.90
28530;DHT22;15737;49.760;6.632;2023-05-10T13:40:25;21.40;93.80
28530;DHT22;15737;49.760;6.632;2023-05-10T13:43:13;21.20;92.50
28530;DHT22;15737;49.760;6.632;2023-05-10T13:45:56;21.20;92.80
28530;DHT22;15737;49.760;6.632;2023-05-10T13:48:35;21.90;92.30
28530;DHT22;15737;49.760;6.632;2023-05-10T13:51:18;22.30;90.70
28530;DHT22;15737;49.760;6.632;2023-05-10T13:53:58;21.80;91.10
28530;DHT22;15737;49.760;6.632;2023-05-10T13:56:33;21.50;90.50
28530;DHT22;15737;49.760;6.632;2023-05-10T13:59:07;21.00;91.30
28530;DHT22;15737;49.760;6.632;2023-05-10T14:01:36;20.90;91.50
28530;DHT22;15737;49.760;6.632;2023-05-10T14:04:02;21.10;92.00
28530;DHT22;15737;49.760;6.632;2023-05-10T14:06:27;21.60;91.40
28530;DHT22;15737;49.760;6.632;2023-05-10T14:08:53;22.40;90.70
28530;DHT22;15737;49.760;6.632;2023-05-10T14:11:19;22.40;90.60
28530;DHT22;15737;49.760;6.632;2023-05-10T14:13:45;22.60;90.30
28530;DHT22;15737;49.760;6.632;2023-05-10T14:16:10;22.00;86.40
28530;DHT22;15737;49.760;6.632;2023-05-10T14:18:37;21.00;88.30
28530;DHT22;15737;49.760;6.632;2023-05-10T14:21:03;20.40;89.40
28530;DHT22;15737;49.760;6.632;2023-05-10T14:23:29;19.90;90.50
28530;DHT22;15737;49.760;6.632;2023-05-10T14:25:55;19.80;91.60
28530;DHT22;15737;49.760;6.632;2023-05-10T14:28:21;19.90;91.60
28530;DHT22;15737;49.760;6.632;2023-05-10T14:30:47;19.80;91.40
28530;DHT22;15737;49.760;6.632;2023-05-10T14:33:13;20.00;91.90
28530;DHT22;15737;49.760;6.632;2023-05-10T14:35:39;20.60;91.60
28530;DHT22;15737;49.760;6.632;2023-05-10T14:38:04;21.70;90.90
28530;DHT22;15737;49.760;6.632;2023-05-10T14:40:30;22.20;90.80
28530;DHT22;15737;49.760;6.632;2023-05-10T14:42:56;22.40;89.80
28530;DHT22;15737;49.760;6.632;2023-05-10T14:45:22;21.70;89.50
28530;DHT22;15737;49.760;6.632;2023-05-10T14:47:48;21.60;89.60
28530;DHT22;15737;49.760;6.632;2023-05-10T14:50:14;21.90;88.70
28530;DHT22;15737;49.760;6.632;2023-05-10T14:52:39;21.10;88.00
28530;DHT22;15737;49.760;6.632;2023-05-10T14:55:06;20.70;86.40
28530;DHT22;15737;49.760;6.632;2023-05-10T14:57:31;20.60;87.10
28530;DHT22;15737;49.760;6.632;2023-05-10T14:59:57;20.20;84.60
28530;DHT22;15737;49.760;6.632;2023-05-10T15:02:23;20.10;86.80
28530;DHT22;15737;49.760;6.632;2023-05-10T15:04:48;20.10;86.20
28530;DHT22;15737;49.760;6.632;2023-05-10T15:07:14;19.80;85.90
28530;DHT22;15737;49.760;6.632;2023-05-10T15:09:41;19.50;83.90
28530;DHT22;15737;49.760;6.632;2023-05-10T15:12:07;19.10;84.60
28530;DHT22;15737;49.760;6.632;2023-05-10T15:14:32;19.20;84.40
28530;DHT22;15737;49.760;6.632;2023-05-10T15:16:58;19.10;82.70
28530;DHT22;15737;49.760;6.632;2023-05-10T15:19:24;18.90;84.60
28530;DHT22;15737;49.760;6.632;2023-05-10T15:21:49;18.90;87.20
28530;DHT22;15737;49.760;6.632;2023-05-10T15:24:15;19.00;87.70
28530;DHT22;15737;49.760;6.632;2023-05-10T15:26:40;19.20;88.30
28530;DHT22;15737;49.760;6.632;2023-05-10T15:29:06;19.10;87.20
28530;DHT22;15737;49.760;6.632;2023-05-10T15:31:32;18.60;88.20
28530;DHT22;15737;49.760;6.632;2023-05-10T15:34:00;18.50;89.30
28530;DHT22;15737;49.760;6.632;2023-05-10T15:36:26;18.60;89.50
28530;DHT22;15737;49.760;6.632;2023-05-10T15:38:53;18.90;89.80
28530;DHT22;15737;49.760;6.632;2023-05-10T15:41:19;19.10;89.40
28530;DHT22;15737;49.760;6.632;2023-05-10T15:43:44;19.30;89.10
28530;DHT22;15737;49.760;6.632;2023-05-10T15:46:10;19.60;89.40
28530;DHT22;15737;49.760;6.632;2023-05-10T15:48:35;19.50;88.00
28530;DHT22;15737;49.760;6.632;2023-05-10T15:51:01;19.40;87.50
28530;DHT22;15737;49.760;6.632;2023-05-10T15:53:26;19.50;87.50
28530;DHT22;15737;49.760;6.632;2023-05-10T15:55:52;19.20;86.30
28530;DHT22;15737;49.760;6.632;2023-05-10T15:58:18;19.20;87.10
28530;DHT22;15737;49.760;6.632;2023-05-10T16:00:43;19.20;87.70